Time;durP1;ratioP1;P1;durP2;ratioP2;P2;SDS_P1;SDS_P2;PMS_P1;PMS_P2;Temp;Humidity;BMP_temperature;BMP_pressure;BME280_temperature;BME280_humidity;BME280_pressure;Samples;Min_cycle;Max_cycle;Signal;HPM_P1;HPM_P2
2021/09/28 00:00:09;;;;;;;2.53;1.40;;;;;;;15.54;80.73;101288.97;5095419;28;20208;-83
2021/09/28 00:02:35;;;;;;;3.83;1.57;;;;;;;15.53;80.93;101274.69;5108602;28;20199;-83
2021/09/28 00:05:04;;;;;;;5.37;1.80;;;;;;;15.53;81.01;101280.06;5111419;28;20540;-83
2021/09/28 00:07:30;;;;;;;4.63;1.60;;;;;;;15.52;80.79;101281.03;5115686;28;20239;-83
2021/09/28 00:09:57;;;;;;;4.07;1.57;;;;;;;15.53;81.08;101276.53;5101076;28;20204;-82
2021/09/28 00:12:23;;;;;;;3.30;1.23;;;;;;;15.51;81.26;101283.81;5095604;28;20220;-83
2021/09/28 00:14:50;;;;;;;4.67;1.30;;;;;;;15.50;81.18;101269.53;5095475;28;20201;-82
2021/09/28 00:17:17;;;;;;;3.27;1.60;;;;;;;15.50;81.36;101284.78;5096344;28;20219;-82
2021/09/28 00:19:43;;;;;;;4.67;2.00;;;;;;;15.48;81.04;101286.72;5097025;28;20211;-82
2021/09/28 00:22:11;;;;;;;5.10;1.83;;;;;;;15.46;81.14;101283.31;5109311;28;20207;-84
2021/09/28 00:24:38;;;;;;;3.40;1.40;;;;;;;15.44;81.29;101299.50;5117173;28;20215;-84
2021/09/28 00:27:05;;;;;;;4.03;1.40;;;;;;;15.42;81.29;101296.09;5117063;28;20224;-83
2021/09/28 00:29:31;;;;;;;3.93;1.67;;;;;;;15.40;81.41;101300.75;5116246;28;20227;-83
2021/09/28 00:31:58;;;;;;;3.50;1.43;;;;;;;15.38;81.16;101297.31;5115953;28;20216;-82
2021/09/28 00:34:25;;;;;;;3.73;1.80;;;;;;;15.38;81.19;101304.50;5108177;28;20534;-83
2021/09/28 00:36:51;;;;;;;3.60;1.67;;;;;;;15.35;81.84;101304.72;5095357;28;20224;-84
2021/09/28 00:39:19;;;;;;;3.40;1.77;;;;;;;15.34;81.69;101303.84;5112438;28;20763;-84
2021/09/28 00:41:45;;;;;;;2.77;1.60;;;;;;;15.34;81.78;101311.06;5115781;28;20658;-83
2021/09/28 00:44:12;;;;;;;4.13;1.60;;;;;;;15.33;81.87;101312.00;5095497;28;20205;-83
2021/09/28 00:46:38;;;;;;;4.00;2.10;;;;;;;15.30;81.92;101310.41;5095488;28;20294;-84
2021/09/28 00:49:05;;;;;;;3.40;2.37;;;;;;;15.28;81.99;101310.50;5106695;28;20219;-83
2021/09/28 00:51:32;;;;;;;3.57;2.20;;;;;;;15.28;82.01;101309.66;5103890;28;20245;-82
2021/09/28 00:53:59;;;;;;;3.83;2.37;;;;;;;15.28;82.16;101309.66;5094729;28;20204;-83
2021/09/28 00:56:27;;;;;;;4.70;2.40;;;;;;;15.27;82.32;101314.16;5095184;28;20587;-83
2021/09/28 00:58:54;;;;;;;5.13;2.97;;;;;;;15.26;82.45;101315.13;5093541;28;20570;-82
2021/09/28 01:01:20;;;;;;;4.93;2.90;;;;;;;15.26;82.42;101317.81;5074669;28;20577;-83
2021/09/28 01:03:47;;;;;;;6.10;3.33;;;;;;;15.25;82.20;101309.88;5093836;28;20555;-83
2021/09/28 01:06:14;;;;;;;8.20;3.57;;;;;;;15.24;82.27;101329.63;5115344;28;20251;-83
2021/09/28 01:08:40;;;;;;;8.43;4.03;;;;;;;15.24;82.35;101329.63;5111693;28;20223;-82
2021/09/28 01:11:07;;;;;;;4.67;3.47;;;;;;;15.23;82.55;101335.97;5094858;28;20204;-83
2021/09/28 01:13:35;;;;;;;7.70;4.60;;;;;;;15.23;82.62;101330.59;5094801;28;20209;-83
2021/09/28 01:16:10;;;;;;;5.47;4.50;;;;;;;15.21;82.41;101337.91;5094381;28;20351;-83
2021/09/28 01:18:38;;;;;;;6.93;4.80;;;;;;;15.18;82.56;101330.94;5101190;28;20208;-82
2021/09/28 01:21:09;;;;;;;4.63;4.23;;;;;;;15.18;82.29;101332.78;5114212;28;20697;-83
2021/09/28 01:23:36;;;;;;;5.33;4.47;;;;;;;15.18;82.66;101325.56;5114831;28;20199;-83
2021/09/28 01:26:03;;;;;;;5.17;4.43;;;;;;;15.16;82.44;101327.50;5100832;28;20228;-83
2021/09/28 01:28:29;;;;;;;6.73;5.17;;;;;;;15.14;82.14;101325.91;5095003;28;20231;-82
2021/09/28 01:30:58;;;;;;;6.20;5.00;;;;;;;15.12;82.27;101326.00;5103984;28;20208;-82
2021/09/28 01:33:24;;;;;;;6.20;4.73;;;;;;;15.09;82.24;101328.91;5089810;28;20209;-82
2021/09/28 01:35:51;;;;;;;10.07;5.57;;;;;;;15.04;82.03;101331.09;5092825;28;20198;-82
2021/09/28 01:38:19;;;;;;;7.47;4.97;;;;;;;15.03;82.04;101336.56;5113673;28;20218;-82
2021/09/28 01:40:45;;;;;;;6.30;4.90;;;;;;;14.99;81.97;101343.94;5114351;28;20563;-82
2021/09/28 01:43:14;;;;;;;9.57;5.50;;;;;;;14.96;82.19;101343.31;5113913;28;20642;-81
2021/09/28 01:45:42;;;;;;;6.40;4.70;;;;;;;14.93;81.81;101349.75;5113845;28;20203;-81
2021/09/28 01:48:08;;;;;;;6.97;5.03;;;;;;;14.90;82.06;101347.28;5113978;28;20226;-81
2021/09/28 01:50:36;;;;;;;5.17;4.67;;;;;;;14.87;81.96;101355.53;5114847;28;20280;-82
2021/09/28 01:53:03;;;;;;;8.17;5.50;;;;;;;14.83;82.09;101354.91;5114673;28;20214;-81
2021/09/28 01:55:31;;;;;;;5.43;4.90;;;;;;;14.79;82.19;101352.53;5114582;28;20229;-82
2021/09/28 01:57:58;;;;;;;9.73;5.53;;;;;;;14.75;81.93;101369.78;5114363;28;20224;-81
2021/09/28 02:00:25;;;;;;;10.30;5.43;;;;;;;14.72;81.99;101367.31;5104027;28;20204;-82
2021/09/28 02:02:52;;;;;;;5.37;4.90;;;;;;;14.68;82.21;101368.53;5093120;28;20204;-81
2021/09/28 02:05:20;;;;;;;5.83;4.60;;;;;;;14.66;82.11;101370.44;5093149;28;20212;-82
2021/09/28 02:07:46;;;;;;;6.17;5.47;;;;;;;14.62;82.31;101369.78;5103555;28;20219;-82
2021/09/28 02:10:13;;;;;;;6.40;4.70;;;;;;;14.61;82.17;101372.56;5112873;28;20203;-81
2021/09/28 02:12:41;;;;;;;5.13;4.57;;;;;;;14.57;82.29;101370.09;5113328;28;20211;-81
2021/09/28 02:15:08;;;;;;;8.23;5.40;;;;;;;14.54;81.95;101378.34;5113740;28;20210;-82
2021/09/28 02:17:35;;;;;;;6.67;4.60;;;;;;;14.51;82.15;101377.72;5113574;28;20239;-83
2021/09/28 02:20:01;;;;;;;4.70;4.30;;;;;;;14.47;82.12;101377.06;5113265;28;20204;-83
2021/09/28 02:22:28;;;;;;;4.87;4.37;;;;;;;14.45;82.31;101376.31;5110105;28;20215;-83
2021/09/28 02:24:55;;;;;;;7.63;4.47;;;;;;;14.43;82.34;101374.69;5098016;28;20196;-83
2021/09/28 02:27:21;;;;;;;6.60;4.57;;;;;;;14.41;81.95;101371.25;5099748;28;20220;-82
2021/09/28 02:29:49;;;;;;;7.33;5.17;;;;;;;14.38;82.50;101372.28;5092437;28;20227;-82
2021/09/28 02:32:16;;;;;;;6.50;4.90;;;;;;;14.34;81.81;101370.75;5092754;28;20204;-82
2021/09/28 02:34:42;;;;;;;6.23;4.07;;;;;;;14.31;81.94;101373.69;5092980;28;20666;-82
2021/09/28 02:37:11;;;;;;;6.43;4.07;;;;;;;14.28;82.05;101379.25;5093199;28;20594;-82
2021/09/28 02:39:40;;;;;;;5.87;4.17;;;;;;;14.23;82.10;101374.19;5100697;28;20197;-82
2021/09/28 02:42:07;;;;;;;7.87;5.17;;;;;;;14.21;82.04;101377.91;5092874;28;20223;-82
2021/09/28 02:44:33;;;;;;;6.93;6.17;;;;;;;14.16;82.12;101377.34;5093065;28;20211;-82
2021/09/28 02:47:02;;;;;;;10.63;7.50;;;;;;;14.14;82.05;101382.00;5092501;28;20234;-83
2021/09/28 02:49:28;;;;;;;11.07;7.20;;;;;;;14.08;82.52;101379.72;5095209;28;20220;-83
2021/09/28 02:51:55;;;;;;;8.23;7.37;;;;;;;14.05;82.09;101382.59;5094768;28;20200;-83
2021/09/28 02:54:21;;;;;;;11.17;7.93;;;;;;;13.99;82.28;101386.50;5095894;28;20200;-83
2021/09/28 02:56:48;;;;;;;14.90;7.70;;;;;;;13.96;82.19;101391.25;5114732;28;20223;-82
2021/09/28 02:59:14;;;;;;;9.27;7.40;;;;;;;13.92;82.42;101392.41;5114773;28;20199;-83
2021/09/28 03:01:41;;;;;;;9.40;7.43;;;;;;;13.89;82.52;101388.94;5109942;28;20264;-83
2021/09/28 03:04:09;;;;;;;9.27;7.57;;;;;;;13.85;82.77;101398.13;5094661;28;20196;-82
2021/09/28 03:06:35;;;;;;;9.07;7.97;;;;;;;13.82;82.61;101398.34;5092874;28;20228;-82
2021/09/28 03:09:02;;;;;;;10.83;8.27;;;;;;;13.79;82.63;101400.38;5092484;28;20315;-82
2021/09/28 03:11:28;;;;;;;11.83;8.30;;;;;;;13.76;82.96;101401.44;5100754;28;20235;-82
2021/09/28 03:13:55;;;;;;;10.83;8.30;;;;;;;13.74;83.13;101402.47;5093118;28;20208;-82
2021/09/28 03:16:22;;;;;;;12.97;8.23;;;;;;;13.71;83.54;101403.53;5096542;28;20590;-82
2021/09/28 03:18:49;;;;;;;10.40;8.83;;;;;;;13.69;83.36;101404.59;5096410;28;20208;-81
2021/09/28 03:21:17;;;;;;;9.30;7.60;;;;;;;13.66;83.33;101399.44;5101497;28;20557;-82
2021/09/28 03:23:43;;;;;;;10.13;7.80;;;;;;;13.64;83.25;101396.84;5117716;28;20211;-82
2021/09/28 03:26:10;;;;;;;8.83;7.90;;;;;;;13.62;83.11;101398.75;5113196;28;20216;-82
2021/09/28 03:28:37;;;;;;;8.33;7.50;;;;;;;13.60;83.62;101406.06;5097475;28;20810;-82
2021/09/28 03:31:03;;;;;;;10.43;8.10;;;;;;;13.59;83.46;101404.34;5096821;28;20315;-83
2021/09/28 03:33:30;;;;;;;11.67;8.23;;;;;;;13.55;83.36;101409.00;5116019;28;20204;-82
2021/09/28 03:35:57;;;;;;;10.07;7.97;;;;;;;13.54;83.98;101406.44;5105978;28;20227;-82
2021/09/28 03:38:25;;;;;;;11.17;7.97;;;;;;;13.54;83.64;101411.78;5085438;28;20216;-82
2021/09/28 03:40:51;;;;;;;13.67;8.73;;;;;;;13.53;83.54;101412.75;5088957;28;20196;-82
2021/09/28 03:43:18;;;;;;;9.23;8.20;;;;;;;13.50;84.20;101410.25;5079707;28;20196;-82
2021/09/28 03:45:45;;;;;;;10.83;8.73;;;;;;;13.48;84.11;101418.38;5081290;28;20201;-82
2021/09/28 03:48:11;;;;;;;10.20;8.00;;;;;;;13.47;83.62;101427.34;5080623;28;20200;-82
2021/09/28 03:50:38;;;;;;;11.77;8.27;;;;;;;13.45;83.74;101423.91;5092050;28;20237;-82
2021/09/28 03:53:05;;;;;;;13.27;8.00;;;;;;;13.44;83.80;101426.69;5078867;28;20258;-82
2021/09/28 03:55:33;;;;;;;11.20;7.57;;;;;;;13.44;84.06;101429.34;5083464;28;20208;-83
2021/09/28 03:58:01;;;;;;;11.50;7.00;;;;;;;13.43;84.38;101425.00;5090538;28;20224;-82
2021/09/28 04:00:28;;;;;;;10.40;6.53;;;;;;;13.42;83.94;101423.28;5082630;28;20612;-81
2021/09/28 04:02:55;;;;;;;9.30;5.80;;;;;;;13.41;84.38;101421.56;5087263;28;20716;-82
2021/09/28 04:05:21;;;;;;;9.43;6.00;;;;;;;13.38;83.81;101424.41;5081463;28;20212;-83
2021/09/28 04:07:48;;;;;;;8.20;5.90;;;;;;;13.36;83.83;101432.53;5084559;28;20223;-82
2021/09/28 04:10:14;;;;;;;8.97;5.83;;;;;;;13.34;83.92;101430.91;5085825;28;20571;-83
2021/09/28 04:12:42;;;;;;;8.90;5.50;;;;;;;13.33;84.40;101423.84;5092048;28;20196;-83
2021/09/28 04:15:09;;;;;;;9.97;6.00;;;;;;;13.32;83.98;101436.34;5096727;28;20208;-82
2021/09/28 04:17:36;;;;;;;7.10;5.30;;;;;;;13.31;84.33;101436.44;5094414;28;20690;-83
2021/09/28 04:20:04;;;;;;;6.40;5.10;;;;;;;13.30;84.20;101445.41;5094386;28;20189;-83
2021/09/28 04:22:30;;;;;;;11.10;5.80;;;;;;;13.28;84.67;101440.16;5091280;28;20208;-83
2021/09/28 04:24:57;;;;;;;6.57;5.50;;;;;;;13.27;84.77;101445.59;5088789;28;20204;-83
2021/09/28 04:27:23;;;;;;;8.53;5.13;;;;;;;13.26;84.69;101438.53;5083069;28;20243;-83
2021/09/28 04:29:51;;;;;;;7.37;5.17;;;;;;;13.26;84.65;101450.09;5094042;28;20236;-83
2021/09/28 04:32:18;;;;;;;7.47;5.40;;;;;;;13.26;84.69;101454.59;5095618;28;20208;-82
2021/09/28 04:34:44;;;;;;;13.00;5.83;;;;;;;13.24;84.67;101457.38;5116637;28;20214;-83
2021/09/28 04:37:12;;;;;;;7.30;5.23;;;;;;;13.24;84.45;101459.19;5096117;28;20239;-83
2021/09/28 04:39:38;;;;;;;6.50;4.67;;;;;;;13.24;84.45;101453.84;5095978;28;20247;-83
2021/09/28 04:42:06;;;;;;;8.73;4.63;;;;;;;13.21;84.68;101460.25;5090827;28;20200;-83
2021/09/28 04:44:32;;;;;;;11.70;5.93;;;;;;;13.21;84.78;101468.25;5090356;28;20628;-82
2021/09/28 04:47:00;;;;;;;6.77;5.47;;;;;;;13.21;84.40;101470.94;5089272;28;20224;-82
2021/09/28 04:49:27;;;;;;;7.33;5.00;;;;;;;13.19;84.45;101470.16;5098180;28;20215;-83
2021/09/28 04:51:54;;;;;;;9.07;5.67;;;;;;;13.18;84.31;101479.16;5098969;28;20201;-83
2021/09/28 04:54:20;;;;;;;10.47;5.33;;;;;;;13.16;84.17;101481.91;5083932;28;20205;-83
2021/09/28 04:56:47;;;;;;;8.27;5.50;;;;;;;13.15;84.21;101480.19;5086165;28;20713;-83
2021/09/28 04:59:13;;;;;;;8.43;5.43;;;;;;;13.14;84.60;101488.28;5089566;28;20196;-84
2021/09/28 05:01:40;;;;;;;8.10;5.87;;;;;;;13.12;84.32;101491.03;5093592;28;20209;-83
2021/09/28 05:04:07;;;;;;;10.73;6.50;;;;;;;13.10;84.48;101495.63;5085747;28;20197;-82
2021/09/28 05:06:34;;;;;;;10.63;6.10;;;;;;;13.08;84.34;101500.19;5086421;28;20224;-81
2021/09/28 05:09:00;;;;;;;7.83;6.53;;;;;;;13.07;84.40;101489.63;5081924;28;20205;-81
2021/09/28 05:11:27;;;;;;;10.60;7.43;;;;;;;13.04;84.50;101493.34;5085061;28;20209;-81
2021/09/28 05:13:53;;;;;;;10.93;7.20;;;;;;;13.01;84.57;101490.84;5091812;28;20650;-81
2021/09/28 05:16:20;;;;;;;10.73;7.83;;;;;;;13.00;84.19;101498.94;5101481;28;20232;-81
2021/09/28 05:18:47;;;;;;;10.80;7.50;;;;;;;12.98;84.23;101504.38;5087835;28;20207;-81
2021/09/28 05:21:15;;;;;;;14.07;8.33;;;;;;;12.97;84.35;101501.81;5088305;28;20200;-81
2021/09/28 05:23:45;;;;;;;11.03;8.27;;;;;;;12.94;84.59;101508.19;5093514;28;20211;-82
2021/09/28 05:26:12;;;;;;;10.93;8.20;;;;;;;12.94;84.62;101508.19;5090272;28;20230;-81
2021/09/28 05:28:39;;;;;;;12.10;8.73;;;;;;;12.92;84.69;101507.41;5093691;28;20196;-80
2021/09/28 05:31:05;;;;;;;11.73;8.87;;;;;;;12.91;84.63;101511.03;5088905;28;20228;-81
2021/09/28 05:33:32;;;;;;;12.67;10.40;;;;;;;12.91;85.07;101516.38;5086622;28;20240;-81
2021/09/28 05:35:58;;;;;;;15.53;10.67;;;;;;;12.91;84.80;101521.72;5089284;28;20234;-81
2021/09/28 05:38:27;;;;;;;15.87;11.83;;;;;;;12.90;84.86;101522.69;5086888;28;20333;-80
2021/09/28 05:40:53;;;;;;;15.83;10.73;;;;;;;12.90;85.28;101528.03;5087029;28;20202;-81
2021/09/28 05:43:20;;;;;;;19.60;11.07;;;;;;;12.89;85.02;101531.69;5111570;28;20586;-81
2021/09/28 05:45:46;;;;;;;20.53;12.30;;;;;;;12.90;84.93;101530.69;5113516;28;20207;-80
2021/09/28 05:48:13;;;;;;;18.37;11.50;;;;;;;12.89;85.08;101528.16;5113927;28;20207;-81
2021/09/28 05:50:40;;;;;;;15.60;12.30;;;;;;;12.90;85.06;101527.19;5114644;28;20227;-81
2021/09/28 05:53:08;;;;;;;17.57;12.13;;;;;;;12.88;85.16;101529.09;5114574;28;20586;-80
2021/09/28 05:55:37;;;;;;;18.70;11.83;;;;;;;12.88;85.39;101537.13;5114394;28;20207;-81
2021/09/28 05:58:04;;;;;;;19.33;12.50;;;;;;;12.87;85.31;101533.59;5114766;28;20211;-81
2021/09/28 06:00:31;;;;;;;17.43;12.07;;;;;;;12.86;85.51;101539.88;5114410;28;20203;-82
2021/09/28 06:02:57;;;;;;;24.23;13.53;;;;;;;12.85;85.55;101541.69;5114251;28;20207;-82
2021/09/28 06:05:24;;;;;;;20.37;13.63;;;;;;;12.86;85.58;101542.56;5114620;28;20206;-80
2021/09/28 06:07:51;;;;;;;18.27;12.23;;;;;;;12.86;85.49;101546.09;5114440;28;20231;-81
2021/09/28 06:10:18;;;;;;;19.83;13.03;;;;;;;12.89;85.60;101554.88;5114586;28;20227;-81
2021/09/28 06:12:46;;;;;;;19.30;13.83;;;;;;;12.89;85.43;101553.06;5114566;28;20581;-80
2021/09/28 06:15:13;;;;;;;18.47;12.90;;;;;;;12.90;85.82;101562.78;5113412;28;20203;-81
2021/09/28 06:17:40;;;;;;;20.23;13.87;;;;;;;12.90;85.60;101557.44;5114825;28;20228;-81
2021/09/28 06:20:08;;;;;;;20.80;13.37;;;;;;;12.95;85.82;101565.19;5114576;28;20220;-81
2021/09/28 06:22:35;;;;;;;20.70;13.80;;;;;;;12.96;85.56;101565.09;5114725;28;20214;-81
2021/09/28 06:25:01;;;;;;;23.00;14.67;;;;;;;12.98;85.92;101559.69;5114214;28;20214;-82
2021/09/28 06:27:28;;;;;;;22.27;14.70;;;;;;;13.01;85.81;101562.19;5114544;28;20230;-81
2021/09/28 06:29:56;;;;;;;21.87;14.70;;;;;;;13.03;85.80;101558.47;5114237;28;20581;-80
2021/09/28 06:32:24;;;;;;;24.70;15.30;;;;;;;13.06;85.96;101565.44;5114228;28;20211;-80
2021/09/28 06:34:51;;;;;;;24.77;15.23;;;;;;;13.07;86.01;101565.34;5114186;28;20202;-81
2021/09/28 06:37:17;;;;;;;24.10;15.37;;;;;;;13.10;85.86;101564.28;5114642;28;20232;-82
2021/09/28 06:39:44;;;;;;;23.63;15.03;;;;;;;13.12;85.87;101560.56;5115230;28;20290;-82
2021/09/28 06:42:10;;;;;;;24.63;15.17;;;;;;;13.15;86.25;101565.78;5114663;28;20210;-81
2021/09/28 06:44:37;;;;;;;23.07;14.80;;;;;;;13.19;86.25;101567.31;5114002;28;20203;-81
2021/09/28 06:47:05;;;;;;;23.17;15.87;;;;;;;13.25;85.99;101573.28;5114701;28;20249;-82
2021/09/28 06:49:32;;;;;;;27.93;16.20;;;;;;;13.28;86.05;101575.75;5113352;28;20207;-82
2021/09/28 06:51:58;;;;;;;26.37;15.67;;;;;;;13.30;86.18;101573.84;5113586;28;20214;-82
2021/09/28 06:54:25;;;;;;;24.73;16.27;;;;;;;13.33;85.98;101574.53;5114178;28;20267;-82
2021/09/28 06:56:52;;;;;;;31.57;16.50;;;;;;;13.39;86.02;101578.66;5113595;28;20227;-81
2021/09/28 06:59:18;;;;;;;28.70;16.83;;;;;;;13.42;86.24;101576.66;5113282;28;20203;-80
2021/09/28 07:01:45;;;;;;;27.90;16.33;;;;;;;13.48;86.35;101578.06;5113840;28;20196;-81
2021/09/28 07:04:13;;;;;;;29.00;16.63;;;;;;;13.55;85.97;101584.78;5114483;28;20207;-80
2021/09/28 07:06:40;;;;;;;29.50;17.60;;;;;;;13.58;86.09;101584.63;5113669;28;20357;-81
2021/09/28 07:09:06;;;;;;;32.53;18.30;;;;;;;13.63;85.80;101579.81;5113422;28;20688;-81
2021/09/28 07:11:33;;;;;;;35.73;17.73;;;;;;;13.71;86.04;101584.72;5114891;28;20228;-82
2021/09/28 07:13:59;;;;;;;33.77;18.37;;;;;;;13.78;86.12;101583.38;5092080;28;20201;-81
2021/09/28 07:16:26;;;;;;;34.30;18.07;;;;;;;13.84;85.91;101597.25;5081603;28;20231;-81
2021/09/28 07:18:52;;;;;;;32.30;18.87;;;;;;;13.91;86.03;101587.03;5080063;28;20200;-82
2021/09/28 07:21:21;;;;;;;33.70;18.37;;;;;;;13.98;85.73;101595.50;5093373;28;20214;-80
2021/09/28 07:23:48;;;;;;;31.47;17.93;;;;;;;14.04;85.18;101598.69;5093089;28;20210;-81
2021/09/28 07:26:15;;;;;;;33.90;18.00;;;;;;;14.10;85.34;101597.44;5093094;28;20219;-81
2021/09/28 07:28:41;;;;;;;31.43;17.07;;;;;;;14.16;85.41;101605.06;5092851;28;20200;-82
2021/09/28 07:31:09;;;;;;;28.17;17.47;;;;;;;14.21;84.60;101602.97;5092810;28;20234;-81
2021/09/28 07:33:35;;;;;;;29.37;18.10;;;;;;;14.27;84.49;101607.09;5093112;28;20214;-81
2021/09/28 07:36:05;;;;;;;33.20;17.20;;;;;;;14.34;84.20;101611.06;5092088;28;20224;-80
2021/09/28 07:38:34;;;;;;;30.00;17.30;;;;;;;14.37;83.79;101614.44;5092235;28;20658;-83
2021/09/28 07:41:00;;;;;;;32.23;18.70;;;;;;;14.43;83.43;101608.72;5093123;28;20781;-82
2021/09/28 07:43:27;;;;;;;30.93;19.17;;;;;;;14.49;83.30;101600.28;5092436;28;20203;-81
2021/09/28 07:45:53;;;;;;;28.47;17.43;;;;;;;14.57;83.22;101600.66;5092098;28;20204;-81
2021/09/28 07:48:20;;;;;;;27.50;17.40;;;;;;;14.70;83.04;101602.50;5090410;28;20208;-83
2021/09/28 07:50:47;;;;;;;30.63;16.83;;;;;;;14.82;83.14;101601.72;5087260;28;20224;-80
2021/09/28 07:53:13;;;;;;;30.87;17.30;;;;;;;14.93;82.55;101604.56;5080857;28;20200;-81
2021/09/28 07:55:41;;;;;;;29.37;17.07;;;;;;;15.06;82.46;101609.94;5113197;28;20208;-81
2021/09/28 07:58:08;;;;;;;31.50;18.43;;;;;;;15.18;82.06;101604.66;5085646;28;20205;-82
2021/09/28 08:00:35;;;;;;;29.07;16.67;;;;;;;15.29;81.79;101596.72;5083590;28;20279;-81
2021/09/28 08:03:03;;;;;;;28.00;17.33;;;;;;;15.34;80.67;101615.19;5086577;28;20215;-80
2021/09/28 08:05:29;;;;;;;29.20;18.10;;;;;;;15.35;79.68;101616.91;5084286;28;20678;-83
2021/09/28 08:07:56;;;;;;;27.53;17.47;;;;;;;15.36;79.03;101612.41;5085833;28;20225;-83
2021/09/28 08:10:22;;;;;;;32.07;16.80;;;;;;;15.40;78.74;101616.63;5087375;28;20240;-80
2021/09/28 08:12:50;;;;;;;28.37;15.77;;;;;;;15.41;78.28;101610.25;5090882;28;20296;-82
2021/09/28 08:15:17;;;;;;;25.30;15.70;;;;;;;15.44;77.99;101615.41;5087861;28;20208;-81
2021/09/28 08:17:43;;;;;;;27.47;17.10;;;;;;;15.44;77.25;101610.91;5078788;28;20231;-82
2021/09/28 08:20:13;;;;;;;26.27;16.70;;;;;;;15.45;76.63;101622.50;5089100;28;20204;-82
2021/09/28 08:22:40;;;;;;;24.50;16.70;;;;;;;15.43;76.22;101617.25;5088712;28;20250;-81
2021/09/28 08:25:10;;;;;;;26.27;15.97;;;;;;;15.48;76.55;101619.63;5084820;28;20198;-81
2021/09/28 08:30:23;;;;;;;25.63;15.80;;;;;;;15.53;75.32;101612.97;5085477;28;20305;-83
2021/09/28 08:32:49;;;;;;;22.73;16.77;;;;;;;15.51;74.83;101609.53;5080441;28;20200;-82
2021/09/28 08:35:16;;;;;;;26.10;15.60;;;;;;;15.50;74.89;101612.31;5090119;28;20201;-82
2021/09/28 08:37:43;;;;;;;26.20;16.50;;;;;;;15.50;75.09;101621.25;5086937;28;20232;-82
2021/09/28 08:40:13;;;;;;;29.50;17.23;;;;;;;15.54;75.19;101614.69;5080052;28;20216;-83
2021/09/28 08:42:40;;;;;;;23.13;16.10;;;;;;;15.58;75.32;101623.44;5081424;28;20193;-82
2021/09/28 08:45:08;;;;;;;22.33;16.70;;;;;;;15.62;75.10;101630.28;5079797;28;20281;-82
2021/09/28 08:47:37;;;;;;;26.17;18.03;;;;;;;15.67;74.95;101628.16;5081825;28;20227;-82
2021/09/28 08:50:05;;;;;;;26.57;17.77;;;;;;;15.71;74.39;101634.19;5081810;28;20205;-81
2021/09/28 08:52:32;;;;;;;26.43;17.30;;;;;;;15.74;74.17;101634.84;5085785;28;20222;-81
2021/09/28 08:54:58;;;;;;;28.37;17.50;;;;;;;15.81;74.16;101625.38;5082294;28;20201;-81
2021/09/28 08:57:25;;;;;;;24.40;17.60;;;;;;;15.88;73.85;101629.34;5084262;28;20269;-82
2021/09/28 08:59:51;;;;;;;24.77;17.20;;;;;;;15.95;73.60;101627.09;5082580;28;20201;-81
2021/09/28 09:02:18;;;;;;;26.67;17.27;;;;;;;16.00;73.37;101634.81;5092169;28;20197;-81
2021/09/28 09:05:02;;;;;;;26.23;18.53;;;;;;;16.06;73.03;101629.91;5083027;28;20201;-82
2021/09/28 09:07:29;;;;;;;28.90;18.80;;;;;;;16.09;72.60;101613.56;5083450;28;20241;-81
2021/09/28 09:09:55;;;;;;;25.23;17.20;;;;;;;16.17;72.67;101626.44;5081522;28;20208;-81
2021/09/28 09:12:30;;;;;;;26.33;18.37;;;;;;;16.26;72.75;101620.41;5082286;28;20294;-83
2021/09/28 09:15:15;;;;;;;25.03;17.73;;;;;;;16.40;72.74;101625.66;5085899;28;20704;-81
2021/09/28 09:17:42;;;;;;;27.60;17.17;;;;;;;16.49;72.23;101622.28;5080729;28;20236;-82
2021/09/28 09:20:24;;;;;;;27.70;16.97;;;;;;;16.55;71.74;101616.47;5084971;28;20216;-82
2021/09/28 09:22:50;;;;;;;25.27;17.37;;;;;;;16.61;71.75;101617.84;5085356;28;20208;-83
2021/09/28 09:25:20;;;;;;;22.73;16.07;;;;;;;16.66;71.09;101621.94;5083807;28;20214;-81
2021/09/28 09:27:47;;;;;;;24.73;16.37;;;;;;;16.70;70.78;101619.03;5079297;28;20646;-82
2021/09/28 09:30:18;;;;;;;20.93;15.80;;;;;;;16.69;69.98;101623.53;5083330;28;20202;-82
2021/09/28 09:32:47;;;;;;;25.03;16.93;;;;;;;16.64;69.70;101626.59;5078898;28;20224;-82
2021/09/28 09:35:19;;;;;;;27.10;16.57;;;;;;;16.64;70.42;101618.53;5079988;28;20576;-82
2021/09/28 09:37:47;;;;;;;20.73;16.43;;;;;;;16.71;70.57;101620.75;5080933;28;20224;-81
2021/09/28 09:40:13;;;;;;;27.93;16.80;;;;;;;16.77;70.42;101618.47;5078139;28;20550;-81
2021/09/28 09:42:53;;;;;;;24.63;16.47;;;;;;;16.81;69.85;101613.72;5084128;28;20209;-81
2021/09/28 09:45:22;;;;;;;22.43;15.03;;;;;;;16.83;69.32;101617.19;5078081;28;20198;-83
2021/09/28 09:47:49;;;;;;;22.20;15.00;;;;;;;16.81;68.88;101611.03;5080916;28;20276;-80
2021/09/28 09:50:18;;;;;;;24.87;15.23;;;;;;;16.85;69.09;101615.19;5084742;28;20288;-81
2021/09/28 09:53:08;;;;;;;18.37;13.93;;;;;;;16.89;69.13;101608.63;5086134;28;20206;-81
2021/09/28 09:55:42;;;;;;;18.27;14.13;;;;;;;16.96;69.12;101610.75;5083162;28;20276;-80
2021/09/28 09:58:09;;;;;;;17.00;13.17;;;;;;;17.04;68.82;101606.59;5087390;28;20293;-81
2021/09/28 10:00:37;;;;;;;17.77;14.23;;;;;;;17.08;68.72;101611.66;5079030;28;20197;-81
2021/09/28 10:03:06;;;;;;;16.70;13.43;;;;;;;17.14;68.36;101613.91;5084577;28;20218;-81
2021/09/28 10:05:33;;;;;;;24.40;13.70;;;;;;;17.19;68.42;101608.16;5086796;28;20192;-82
2021/09/28 10:08:03;;;;;;;15.83;12.83;;;;;;;17.21;68.00;101615.13;5084147;28;20223;-83
2021/09/28 10:10:31;;;;;;;21.33;13.50;;;;;;;17.31;68.05;101618.00;5083543;28;20544;-82
2021/09/28 10:12:58;;;;;;;20.23;12.20;;;;;;;17.37;67.89;101614.00;5081575;28;20216;-83
2021/09/28 10:15:24;;;;;;;16.37;12.67;;;;;;;17.43;67.75;101605.41;5083248;28;20765;-83
2021/09/28 10:17:51;;;;;;;16.97;11.57;;;;;;;17.51;67.18;101611.09;5092667;28;20231;-81
2021/09/28 10:20:29;;;;;;;15.63;11.00;;;;;;;17.55;67.00;101599.97;5081321;28;20333;-81
2021/09/28 10:22:57;;;;;;;19.10;11.70;;;;;;;17.61;66.62;101602.16;5080147;28;20216;-81
2021/09/28 10:25:34;;;;;;;14.30;11.03;;;;;;;17.68;66.15;101602.59;5082031;28;20660;-81
2021/09/28 10:28:32;;;;;;;15.70;11.07;;;;;;;17.75;65.87;101597.56;5086375;28;20225;-80
2021/09/28 10:31:00;;;;;;;16.73;10.27;;;;;;;17.75;64.94;101605.63;5081536;28;20227;-83
2021/09/28 10:33:29;;;;;;;18.17;9.90;;;;;;;17.73;65.07;101600.41;5087168;28;20211;-81
2021/09/28 10:35:58;;;;;;;13.83;9.93;;;;;;;17.76;64.96;101594.75;5081357;28;20236;-82
2021/09/28 10:38:54;;;;;;;15.03;9.60;;;;;;;17.86;65.12;101592.19;5087930;28;20214;-82
2021/09/28 10:41:38;;;;;;;16.40;10.00;;;;;;;17.98;64.71;101593.91;5070040;28;20288;-81
2021/09/28 10:44:47;;;;;;;10.60;9.50;;;;;;;18.06;64.38;101596.00;5086087;28;20227;-83
2021/09/28 10:47:52;;;;;;;10.23;7.90;;;;;;;18.08;63.50;101603.00;5081250;28;20768;-82
2021/09/28 10:50:32;;;;;;;13.10;8.33;;;;;;;18.06;63.12;101602.25;5082193;28;20207;-83
2021/09/28 10:53:00;;;;;;;12.30;7.20;;;;;;;18.04;63.21;101597.00;5087466;28;20210;-81
2021/09/28 10:55:30;;;;;;;8.80;6.57;;;;;;;18.05;63.05;101592.47;5086298;28;20229;-81
2021/09/28 10:58:22;;;;;;;14.07;7.67;;;;;;;18.08;63.27;101588.66;5080748;28;20217;-82
2021/09/28 11:01:09;;;;;;;10.23;7.47;;;;;;;18.11;62.95;101597.34;5081281;28;20258;-81
2021/09/28 11:03:56;;;;;;;11.07;8.33;;;;;;;18.17;62.94;101594.16;5078365;28;20709;-82
2021/09/28 11:06:49;;;;;;;11.57;7.47;;;;;;;18.22;62.66;101588.41;5089006;28;20605;-83
2021/09/28 11:09:18;;;;;;;12.10;7.23;;;;;;;18.26;62.20;101587.19;5082628;28;20208;-82
2021/09/28 11:11:50;;;;;;;13.83;7.50;;;;;;;18.28;61.86;101585.19;5080653;28;20307;-82
2021/09/28 11:14:18;;;;;;;8.27;6.33;;;;;;;18.28;61.83;101585.19;5079854;28;20237;-83
2021/09/28 11:16:50;;;;;;;9.57;7.33;;;;;;;18.29;61.83;101590.47;5083223;28;20221;-82
2021/09/28 11:19:17;;;;;;;12.17;7.70;;;;;;;18.36;62.07;101577.34;5086081;28;20195;-83
2021/09/28 11:21:46;;;;;;;12.77;6.73;;;;;;;18.43;61.71;101581.28;5083668;28;20193;-81
2021/09/28 11:24:14;;;;;;;10.93;6.37;;;;;;;18.48;61.54;101576.34;5091695;28;20201;-83